sensor_id;sensor_type;location;lat;lon;timestamp;pressure;altitude;pressure_sealevel;temperature;humidity
36190;BME280;22232;50.914;13.858;2023-04-22T00:01:08;97610.69;;;10.63;100.00
36190;BME280;22232;50.914;13.858;2023-04-22T00:03:36;97604.56;;;10.63;100.00
36190;BME280;22232;50.914;13.858;2023-04-22T00:06:05;97607.09;;;10.69;100.00
36190;BME280;22232;50.914;13.858;2023-04-22T00:08:33;97599.41;;;10.73;100.00
36190;BME280;22232;50.914;13.858;2023-04-22T00:11:01;97598.16;;;10.75;100.00
36190;BME280;22232;50.914;13.858;2023-04-22T00:13:28;97605.41;;;10.80;100.00
36190;BME280;22232;50.914;13.858;2023-04-22T00:15:56;97597.56;;;10.73;100.00
36190;BME280;22232;50.914;13.858;2023-04-22T00:18:24;97595.47;;;10.75;100.00
36190;BME280;22232;50.914;13.858;2023-04-22T00:20:52;97597.66;;;10.78;100.00
36190;BME280;22232;50.914;13.858;2023-04-22T00:23:19;97592.34;;;10.78;100.00
36190;BME280;22232;50.914;13.858;2023-04-22T00:25:47;97595.81;;;10.79;100.00
36190;BME280;22232;50.914;13.858;2023-04-22T00:28:14;97594.19;;;10.78;100.00
36190;BME280;22232;50.914;13.858;2023-04-22T00:30:42;97587.56;;;10.81;100.00
36190;BME280;22232;50.914;13.858;2023-04-22T00:33:09;97590.81;;;10.83;100.00
36190;BME280;22232;50.914;13.858;2023-04-22T00:35:37;97589.19;;;10.82;100.00
36190;BME280;22232;50.914;13.858;2023-04-22T00:38:04;97589.41;;;10.80;100.00
36190;BME280;22232;50.914;13.858;2023-04-22T00:40:32;97584.81;;;10.75;100.00
36190;BME280;22232;50.914;13.858;2023-04-22T00:43:00;97584.22;;;10.73;100.00
36190;BME280;22232;50.914;13.858;2023-04-22T00:45:29;97582.13;;;10.75;100.00
36190;BME280;22232;50.914;13.858;2023-04-22T00:47:57;97584.38;;;10.55;100.00
36190;BME280;22232;50.914;13.858;2023-04-22T00:50:26;97581.22;;;10.29;100.00
36190;BME280;22232;50.914;13.858;2023-04-22T00:52:54;97588.03;;;10.14;100.00
36190;BME280;22232;50.914;13.858;2023-04-22T00:55:22;97581.91;;;10.01;100.00
36190;BME280;22232;50.914;13.858;2023-04-22T00:57:50;97586.75;;;9.93;100.00
36190;BME280;22232;50.914;13.858;2023-04-22T01:00:18;97584.69;;;9.83;100.00
36190;BME280;22232;50.914;13.858;2023-04-22T01:02:46;97581.53;;;9.74;100.00
36190;BME280;22232;50.914;13.858;2023-04-22T01:05:14;97598.44;;;9.68;100.00
36190;BME280;22232;50.914;13.858;2023-04-22T01:07:42;97586.97;;;9.68;100.00
36190;BME280;22232;50.914;13.858;2023-04-22T01:10:10;97576.91;;;9.70;100.00
36190;BME280;22232;50.914;13.858;2023-04-22T01:12:37;97588.13;;;9.72;100.00
36190;BME280;22232;50.914;13.858;2023-04-22T01:15:05;97585.13;;;9.68;100.00
36190;BME280;22232;50.914;13.858;2023-04-22T01:17:34;97582.94;;;9.65;100.00
36190;BME280;22232;50.914;13.858;2023-04-22T01:20:02;97588.72;;;9.62;100.00
36190;BME280;22232;50.914;13.858;2023-04-22T01:22:41;97579.66;;;9.63;100.00
36190;BME280;22232;50.914;13.858;2023-04-22T01:25:11;97583.47;;;9.55;100.00
36190;BME280;22232;50.914;13.858;2023-04-22T01:27:39;97574.19;;;9.46;100.00
36190;BME280;22232;50.914;13.858;2023-04-22T01:30:08;97576.28;;;9.44;100.00
36190;BME280;22232;50.914;13.858;2023-04-22T01:32:39;97579.41;;;9.41;100.00
36190;BME280;22232;50.914;13.858;2023-04-22T01:35:08;97582.44;;;9.45;100.00
36190;BME280;22232;50.914;13.858;2023-04-22T01:37:36;97581.16;;;9.47;100.00
36190;BME280;22232;50.914;13.858;2023-04-22T01:40:04;97571.66;;;9.39;100.00
36190;BME280;22232;50.914;13.858;2023-04-22T01:42:32;97577.41;;;9.36;100.00
36190;BME280;22232;50.914;13.858;2023-04-22T01:44:59;97577.97;;;9.27;100.00
36190;BME280;22232;50.914;13.858;2023-04-22T01:47:27;97577.03;;;9.21;100.00
36190;BME280;22232;50.914;13.858;2023-04-22T01:49:55;97575.28;;;9.15;100.00
36190;BME280;22232;50.914;13.858;2023-04-22T01:52:22;97574.28;;;9.16;100.00
36190;BME280;22232;50.914;13.858;2023-04-22T01:54:50;97566.03;;;9.17;100.00
36190;BME280;22232;50.914;13.858;2023-04-22T01:57:17;97570.91;;;9.21;100.00
36190;BME280;22232;50.914;13.858;2023-04-22T01:59:45;97565.47;;;9.27;100.00
36190;BME280;22232;50.914;13.858;2023-04-22T02:02:14;97566.28;;;9.28;100.00
36190;BME280;22232;50.914;13.858;2023-04-22T02:04:41;97563.41;;;9.29;100.00
36190;BME280;22232;50.914;13.858;2023-04-22T02:07:09;97564.81;;;9.32;100.00
36190;BME280;22232;50.914;13.858;2023-04-22T02:09:37;97565.03;;;9.30;100.00
36190;BME280;22232;50.914;13.858;2023-04-22T02:12:06;97564.81;;;9.32;100.00
36190;BME280;22232;50.914;13.858;2023-04-22T02:14:33;97564.34;;;9.35;100.00
36190;BME280;22232;50.914;13.858;2023-04-22T02:17:02;97556.84;;;9.32;100.00
36190;BME280;22232;50.914;13.858;2023-04-22T02:19:30;97556.84;;;9.32;100.00
36190;BME280;22232;50.914;13.858;2023-04-22T02:21:57;97560.66;;;9.48;100.00
36190;BME280;22232;50.914;13.858;2023-04-22T02:24:25;97550.72;;;9.55;100.00
36190;BME280;22232;50.914;13.858;2023-04-22T02:26:53;97558.13;;;9.41;100.00
36190;BME280;22232;50.914;13.858;2023-04-22T02:29:20;97552.41;;;9.26;100.00
36190;BME280;22232;50.914;13.858;2023-04-22T02:31:48;97551.16;;;9.28;100.00
36190;BME280;22232;50.914;13.858;2023-04-22T02:34:16;97549.88;;;9.19;100.00
36190;BME280;22232;50.914;13.858;2023-04-22T02:36:43;97552.97;;;9.16;100.00
36190;BME280;22232;50.914;13.858;2023-04-22T02:39:11;97546.03;;;9.15;100.00
36190;BME280;22232;50.914;13.858;2023-04-22T02:41:38;97548.44;;;9.05;100.00
36190;BME280;22232;50.914;13.858;2023-04-22T02:44:06;97541.91;;;9.01;100.00
36190;BME280;22232;50.914;13.858;2023-04-22T02:46:34;97537.91;;;8.98;100.00
36190;BME280;22232;50.914;13.858;2023-04-22T02:49:01;97539.06;;;9.02;100.00
36190;BME280;22232;50.914;13.858;2023-04-22T02:51:29;97539.97;;;8.96;100.00
36190;BME280;22232;50.914;13.858;2023-04-22T02:53:57;97543.53;;;8.90;100.00
36190;BME280;22232;50.914;13.858;2023-04-22T02:56:24;97540.88;;;8.90;100.00
36190;BME280;22232;50.914;13.858;2023-04-22T02:58:53;97535.41;;;8.85;100.00
36190;BME280;22232;50.914;13.858;2023-04-22T03:01:21;97537.16;;;8.91;100.00
36190;BME280;22232;50.914;13.858;2023-04-22T03:03:49;97530.22;;;8.90;100.00
36190;BME280;22232;50.914;13.858;2023-04-22T03:06:21;97538.06;;;8.85;100.00
36190;BME280;22232;50.914;13.858;2023-04-22T03:08:49;97527.56;;;8.90;100.00
36190;BME280;22232;50.914;13.858;2023-04-22T03:11:17;97530.53;;;8.82;100.00
36190;BME280;22232;50.914;13.858;2023-04-22T03:13:44;97523.97;;;8.84;100.00
36190;BME280;22232;50.914;13.858;2023-04-22T03:16:12;97527.75;;;8.77;100.00
36190;BME280;22232;50.914;13.858;2023-04-22T03:18:40;97519.94;;;8.63;100.00
36190;BME280;22232;50.914;13.858;2023-04-22T03:21:09;97526.09;;;8.45;100.00
36190;BME280;22232;50.914;13.858;2023-04-22T03:23:39;97517.13;;;8.46;100.00
36190;BME280;22232;50.914;13.858;2023-04-22T03:26:07;97516.06;;;8.47;100.00
36190;BME280;22232;50.914;13.858;2023-04-22T03:28:35;97510.97;;;8.46;100.00
36190;BME280;22232;50.914;13.858;2023-04-22T03:31:03;97518.72;;;8.47;100.00
36190;BME280;22232;50.914;13.858;2023-04-22T03:33:30;97516.44;;;8.51;100.00
36190;BME280;22232;50.914;13.858;2023-04-22T03:36:04;97515.97;;;8.54;100.00
36190;BME280;22232;50.914;13.858;2023-04-22T03:38:32;97514.13;;;8.55;100.00
36190;BME280;22232;50.914;13.858;2023-04-22T03:41:00;97515.69;;;8.62;100.00
36190;BME280;22232;50.914;13.858;2023-04-22T03:43:40;97507.84;;;8.67;100.00
36190;BME280;22232;50.914;13.858;2023-04-22T03:46:09;97508.75;;;8.73;100.00
36190;BME280;22232;50.914;13.858;2023-04-22T03:48:44;97505.44;;;8.78;100.00
36190;BME280;22232;50.914;13.858;2023-04-22T03:51:21;97503.38;;;8.80;100.00
36190;BME280;22232;50.914;13.858;2023-04-22T03:53:49;97505.19;;;8.79;100.00
36190;BME280;22232;50.914;13.858;2023-04-22T03:56:20;97510.44;;;8.86;100.00
36190;BME280;22232;50.914;13.858;2023-04-22T03:58:49;97505.03;;;8.92;100.00
36190;BME280;22232;50.914;13.858;2023-04-22T04:01:17;97509.69;;;9.09;100.00
36190;BME280;22232;50.914;13.858;2023-04-22T04:03:49;97501.72;;;9.21;100.00
36190;BME280;22232;50.914;13.858;2023-04-22T04:06:18;97500.13;;;9.31;100.00
36190;BME280;22232;50.914;13.858;2023-04-22T04:08:46;97494.44;;;9.39;100.00
36190;BME280;22232;50.914;13.858;2023-04-22T04:11:14;97508.13;;;9.55;100.00
36190;BME280;22232;50.914;13.858;2023-04-22T04:13:41;97506.38;;;9.72;100.00
36190;BME280;22232;50.914;13.858;2023-04-22T04:16:23;97501.97;;;10.01;100.00
36190;BME280;22232;50.914;13.858;2023-04-22T04:18:58;97497.50;;;10.30;100.00
36190;BME280;22232;50.914;13.858;2023-04-22T04:21:27;97492.91;;;10.54;100.00
36190;BME280;22232;50.914;13.858;2023-04-22T04:23:55;97498.66;;;10.92;100.00
36190;BME280;22232;50.914;13.858;2023-04-22T04:26:26;97498.69;;;11.25;100.00
36190;BME280;22232;50.914;13.858;2023-04-22T04:29:01;97497.28;;;11.74;99.29
36190;BME280;22232;50.914;13.858;2023-04-22T04:31:29;97495.75;;;12.16;90.92
36190;BME280;22232;50.914;13.858;2023-04-22T04:33:58;97499.13;;;12.51;86.79
36190;BME280;22232;50.914;13.858;2023-04-22T04:36:26;97492.75;;;13.11;83.41
36190;BME280;22232;50.914;13.858;2023-04-22T04:39:05;97492.69;;;13.70;74.11
36190;BME280;22232;50.914;13.858;2023-04-22T04:41:35;97491.34;;;14.20;68.75
36190;BME280;22232;50.914;13.858;2023-04-22T04:44:07;97496.03;;;14.45;66.43
36190;BME280;22232;50.914;13.858;2023-04-22T04:46:37;97491.06;;;14.80;63.57
36190;BME280;22232;50.914;13.858;2023-04-22T04:49:06;97498.84;;;14.97;64.75
36190;BME280;22232;50.914;13.858;2023-04-22T04:51:44;97492.13;;;14.84;61.71
36190;BME280;22232;50.914;13.858;2023-04-22T04:54:12;97490.81;;;15.17;61.10
36190;BME280;22232;50.914;13.858;2023-04-22T04:56:41;97496.19;;;15.27;58.90
36190;BME280;22232;50.914;13.858;2023-04-22T04:59:10;97498.63;;;15.70;57.66
36190;BME280;22232;50.914;13.858;2023-04-22T05:01:39;97499.28;;;16.32;55.84
36190;BME280;22232;50.914;13.858;2023-04-22T05:04:10;97493.22;;;16.65;53.36
36190;BME280;22232;50.914;13.858;2023-04-22T05:06:40;97496.53;;;17.02;52.17
36190;BME280;22232;50.914;13.858;2023-04-22T05:09:08;97503.75;;;17.06;50.08
36190;BME280;22232;50.914;13.858;2023-04-22T05:11:36;97500.63;;;17.62;49.80
36190;BME280;22232;50.914;13.858;2023-04-22T05:14:11;97498.13;;;18.00;51.90
36190;BME280;22232;50.914;13.858;2023-04-22T05:16:41;97497.63;;;18.22;49.60
36190;BME280;22232;50.914;13.858;2023-04-22T05:19:09;97505.25;;;18.39;51.32
36190;BME280;22232;50.914;13.858;2023-04-22T05:21:37;97508.09;;;18.72;49.10
36190;BME280;22232;50.914;13.858;2023-04-22T05:24:05;97508.72;;;18.88;48.10
36190;BME280;22232;50.914;13.858;2023-04-22T05:26:32;97500.72;;;18.77;47.56
36190;BME280;22232;50.914;13.858;2023-04-22T05:29:04;97510.81;;;18.48;47.15
36190;BME280;22232;50.914;13.858;2023-04-22T05:31:33;97507.38;;;18.42;47.82
36190;BME280;22232;50.914;13.858;2023-04-22T05:34:00;97503.22;;;18.26;49.29
36190;BME280;22232;50.914;13.858;2023-04-22T05:36:28;97509.63;;;18.11;48.71
36190;BME280;22232;50.914;13.858;2023-04-22T05:38:58;97515.97;;;17.67;49.87
36190;BME280;22232;50.914;13.858;2023-04-22T05:41:27;97514.13;;;17.62;50.02
36190;BME280;22232;50.914;13.858;2023-04-22T05:43:56;97514.25;;;17.81;50.31
36190;BME280;22232;50.914;13.858;2023-04-22T05:46:24;97508.31;;;18.08;49.37
36190;BME280;22232;50.914;13.858;2023-04-22T05:48:53;97511.47;;;17.57;51.12
36190;BME280;22232;50.914;13.858;2023-04-22T05:51:41;97508.63;;;17.73;50.66
36190;BME280;22232;50.914;13.858;2023-04-22T05:54:12;97504.22;;;17.87;53.98
36190;BME280;22232;50.914;13.858;2023-04-22T05:56:39;97508.38;;;18.27;50.58
36190;BME280;22232;50.914;13.858;2023-04-22T05:59:07;97511.09;;;18.46;50.24
36190;BME280;22232;50.914;13.858;2023-04-22T06:01:35;97508.94;;;18.48;50.18
36190;BME280;22232;50.914;13.858;2023-04-22T06:04:08;97509.34;;;18.98;48.67
36190;BME280;22232;50.914;13.858;2023-04-22T06:06:38;97512.78;;;19.23;48.74
36190;BME280;22232;50.914;13.858;2023-04-22T06:09:06;97512.75;;;18.90;49.17
36190;BME280;22232;50.914;13.858;2023-04-22T06:11:33;97507.88;;;19.25;49.95
36190;BME280;22232;50.914;13.858;2023-04-22T06:14:01;97512.72;;;19.28;48.87
36190;BME280;22232;50.914;13.858;2023-04-22T06:16:30;97509.06;;;19.19;48.73
36190;BME280;22232;50.914;13.858;2023-04-22T06:18:57;97519.66;;;19.15;47.82
36190;BME280;22232;50.914;13.858;2023-04-22T06:21:25;97521.06;;;19.13;49.85
36190;BME280;22232;50.914;13.858;2023-04-22T06:23:53;97520.16;;;18.79;48.46
36190;BME280;22232;50.914;13.858;2023-04-22T06:26:20;97516.41;;;18.56;49.37
36190;BME280;22232;50.914;13.858;2023-04-22T06:28:48;97517.84;;;18.68;51.86
36190;BME280;22232;50.914;13.858;2023-04-22T06:31:19;97507.03;;;18.92;54.71
36190;BME280;22232;50.914;13.858;2023-04-22T06:33:47;97509.88;;;18.82;54.81
36190;BME280;22232;50.914;13.858;2023-04-22T06:36:17;97507.53;;;18.75;50.74
36190;BME280;22232;50.914;13.858;2023-04-22T06:38:51;97515.19;;;18.44;51.33
36190;BME280;22232;50.914;13.858;2023-04-22T06:41:44;97512.25;;;18.16;50.31
36190;BME280;22232;50.914;13.858;2023-04-22T06:44:29;97507.97;;;18.82;50.73
36190;BME280;22232;50.914;13.858;2023-04-22T06:47:16;97514.91;;;19.07;49.77
36190;BME280;22232;50.914;13.858;2023-04-22T06:49:52;97512.59;;;19.00;48.61
36190;BME280;22232;50.914;13.858;2023-04-22T06:52:23;97516.75;;;19.12;49.93
36190;BME280;22232;50.914;13.858;2023-04-22T06:54:54;97516.28;;;19.05;47.69
36190;BME280;22232;50.914;13.858;2023-04-22T06:57:21;97514.91;;;19.26;48.25
36190;BME280;22232;50.914;13.858;2023-04-22T06:59:49;97520.06;;;19.41;46.03
36190;BME280;22232;50.914;13.858;2023-04-22T07:02:17;97523.88;;;19.40;49.04
36190;BME280;22232;50.914;13.858;2023-04-22T07:04:45;97522.16;;;19.63;45.66
36190;BME280;22232;50.914;13.858;2023-04-22T07:07:13;97525.16;;;19.62;46.50
36190;BME280;22232;50.914;13.858;2023-04-22T07:09:40;97526.22;;;19.66;45.33
36190;BME280;22232;50.914;13.858;2023-04-22T07:12:08;97526.22;;;19.66;45.90
36190;BME280;22232;50.914;13.858;2023-04-22T07:14:36;97525.91;;;19.48;46.35
36190;BME280;22232;50.914;13.858;2023-04-22T07:17:04;97522.28;;;19.39;47.88
36190;BME280;22232;50.914;13.858;2023-04-22T07:19:31;97524.16;;;19.58;46.99
36190;BME280;22232;50.914;13.858;2023-04-22T07:22:01;97517.00;;;19.67;44.50
36190;BME280;22232;50.914;13.858;2023-04-22T07:24:33;97519.19;;;19.46;46.19
36190;BME280;22232;50.914;13.858;2023-04-22T07:27:00;97516.31;;;19.23;47.63
36190;BME280;22232;50.914;13.858;2023-04-22T07:29:28;97514.81;;;19.69;46.13
36190;BME280;22232;50.914;13.858;2023-04-22T07:31:56;97519.59;;;19.53;47.94
36190;BME280;22232;50.914;13.858;2023-04-22T07:34:24;97518.09;;;19.66;46.49
36190;BME280;22232;50.914;13.858;2023-04-22T07:36:51;97514.25;;;20.13;47.77
36190;BME280;22232;50.914;13.858;2023-04-22T07:39:21;97526.81;;;19.77;44.78
36190;BME280;22232;50.914;13.858;2023-04-22T07:41:49;97514.97;;;20.33;45.87
36190;BME280;22232;50.914;13.858;2023-04-22T07:44:17;97512.03;;;20.29;43.69
36190;BME280;22232;50.914;13.858;2023-04-22T07:46:48;97516.06;;;20.73;45.18
36190;BME280;22232;50.914;13.858;2023-04-22T07:49:16;97517.72;;;20.60;44.32
36190;BME280;22232;50.914;13.858;2023-04-22T07:51:44;97521.09;;;20.25;44.76
36190;BME280;22232;50.914;13.858;2023-04-22T07:54:11;97516.44;;;20.80;48.87
36190;BME280;22232;50.914;13.858;2023-04-22T07:56:39;97521.13;;;21.02;46.44
36190;BME280;22232;50.914;13.858;2023-04-22T07:59:06;97511.66;;;20.77;46.74
36190;BME280;22232;50.914;13.858;2023-04-22T08:01:34;97512.09;;;20.93;43.29
36190;BME280;22232;50.914;13.858;2023-04-22T08:04:02;97503.59;;;20.86;43.42
36190;BME280;22232;50.914;13.858;2023-04-22T08:06:30;97513.03;;;20.89;43.09
36190;BME280;22232;50.914;13.858;2023-04-22T08:08:58;97505.25;;;20.73;46.08
36190;BME280;22232;50.914;13.858;2023-04-22T08:11:25;97505.56;;;20.58;42.63
36190;BME280;22232;50.914;13.858;2023-04-22T08:13:53;97507.53;;;20.80;44.64
36190;BME280;22232;50.914;13.858;2023-04-22T08:16:20;97506.66;;;20.57;43.51
36190;BME280;22232;50.914;13.858;2023-04-22T08:18:48;97506.16;;;20.55;46.18
36190;BME280;22232;50.914;13.858;2023-04-22T08:21:15;97505.44;;;20.63;45.45
36190;BME280;22232;50.914;13.858;2023-04-22T08:23:43;97515.06;;;20.69;44.20
36190;BME280;22232;50.914;13.858;2023-04-22T08:26:10;97509.56;;;20.33;46.03
36190;BME280;22232;50.914;13.858;2023-04-22T08:28:41;97505.00;;;20.83;44.58
36190;BME280;22232;50.914;13.858;2023-04-22T08:31:08;97503.84;;;20.76;43.97
36190;BME280;22232;50.914;13.858;2023-04-22T08:33:41;97508.38;;;21.03;43.00
36190;BME280;22232;50.914;13.858;2023-04-22T08:36:08;97507.00;;;20.92;45.47
36190;BME280;22232;50.914;13.858;2023-04-22T08:38:37;97504.06;;;21.02;44.71
36190;BME280;22232;50.914;13.858;2023-04-22T08:41:05;97503.94;;;21.07;42.05
36190;BME280;22232;50.914;13.858;2023-04-22T08:43:33;97506.34;;;21.08;42.41
36190;BME280;22232;50.914;13.858;2023-04-22T08:46:01;97508.69;;;21.01;45.27
36190;BME280;22232;50.914;13.858;2023-04-22T08:48:29;97501.81;;;20.68;44.08
36190;BME280;22232;50.914;13.858;2023-04-22T08:50:58;97503.00;;;20.48;43.07
36190;BME280;22232;50.914;13.858;2023-04-22T08:53:26;97501.81;;;20.26;42.77
36190;BME280;22232;50.914;13.858;2023-04-22T08:55:55;97499.56;;;20.97;44.54
36190;BME280;22232;50.914;13.858;2023-04-22T08:58:23;97513.19;;;21.65;41.93
36190;BME280;22232;50.914;13.858;2023-04-22T09:00:50;97500.63;;;21.77;41.40
36190;BME280;22232;50.914;13.858;2023-04-22T09:03:19;97504.91;;;21.47;42.18
36190;BME280;22232;50.914;13.858;2023-04-22T09:05:50;97501.47;;;21.87;43.26
36190;BME280;22232;50.914;13.858;2023-04-22T09:08:19;97508.31;;;22.07;40.15
36190;BME280;22232;50.914;13.858;2023-04-22T09:10:47;97500.56;;;22.00;42.02
36190;BME280;22232;50.914;13.858;2023-04-22T09:13:15;97499.75;;;22.22;40.98
36190;BME280;22232;50.914;13.858;2023-04-22T09:15:44;97499.94;;;22.03;40.40
36190;BME280;22232;50.914;13.858;2023-04-22T09:18:11;97500.63;;;22.09;42.15
36190;BME280;22232;50.914;13.858;2023-04-22T09:20:42;97497.56;;;22.02;41.20
36190;BME280;22232;50.914;13.858;2023-04-22T09:23:11;97496.69;;;21.84;40.50
36190;BME280;22232;50.914;13.858;2023-04-22T09:25:39;97489.91;;;22.04;41.14
36190;BME280;22232;50.914;13.858;2023-04-22T09:28:10;97489.44;;;21.48;40.90
36190;BME280;22232;50.914;13.858;2023-04-22T09:30:38;97486.44;;;21.49;42.11
36190;BME280;22232;50.914;13.858;2023-04-22T09:33:06;97489.38;;;21.62;42.26
36190;BME280;22232;50.914;13.858;2023-04-22T09:35:39;97484.75;;;21.62;41.47
36190;BME280;22232;50.914;13.858;2023-04-22T09:38:09;97479.53;;;21.29;41.13
36190;BME280;22232;50.914;13.858;2023-04-22T09:40:41;97477.69;;;20.94;40.71
36190;BME280;22232;50.914;13.858;2023-04-22T09:43:10;97478.81;;;21.15;41.97
36190;BME280;22232;50.914;13.858;2023-04-22T09:45:40;97474.63;;;21.09;40.74
36190;BME280;22232;50.914;13.858;2023-04-22T09:48:16;97471.09;;;21.31;42.40
36190;BME280;22232;50.914;13.858;2023-04-22T09:50:47;97464.84;;;21.75;42.87
36190;BME280;22232;50.914;13.858;2023-04-22T09:53:16;97466.47;;;21.76;41.27
36190;BME280;22232;50.914;13.858;2023-04-22T09:55:46;97465.97;;;21.07;39.79
36190;BME280;22232;50.914;13.858;2023-04-22T09:58:16;97454.22;;;20.75;40.69
36190;BME280;22232;50.914;13.858;2023-04-22T10:00:49;97458.34;;;21.09;41.18
36190;BME280;22232;50.914;13.858;2023-04-22T10:03:17;97461.78;;;21.01;41.90
36190;BME280;22232;50.914;13.858;2023-04-22T10:05:45;97462.50;;;20.93;42.48
36190;BME280;22232;50.914;13.858;2023-04-22T10:08:14;97462.94;;;21.08;41.05
36190;BME280;22232;50.914;13.858;2023-04-22T10:10:43;97451.19;;;20.54;42.45
36190;BME280;22232;50.914;13.858;2023-04-22T10:13:11;97452.72;;;20.69;40.67
36190;BME280;22232;50.914;13.858;2023-04-22T10:15:44;97448.44;;;20.68;40.96
36190;BME280;22232;50.914;13.858;2023-04-22T10:18:20;97448.84;;;20.48;40.82
36190;BME280;22232;50.914;13.858;2023-04-22T10:20:49;97452.13;;;20.72;43.53
36190;BME280;22232;50.914;13.858;2023-04-22T10:23:19;97444.94;;;20.54;42.03
36190;BME280;22232;50.914;13.858;2023-04-22T10:25:51;97436.81;;;20.40;40.77
36190;BME280;22232;50.914;13.858;2023-04-22T10:28:21;97450.16;;;20.64;41.86
36190;BME280;22232;50.914;13.858;2023-04-22T10:30:50;97438.94;;;20.15;41.59
36190;BME280;22232;50.914;13.858;2023-04-22T10:41:38;97442.81;;;20.65;42.30
36190;BME280;22232;50.914;13.858;2023-04-22T10:44:06;97437.25;;;20.83;42.19
36190;BME280;22232;50.914;13.858;2023-04-22T10:49:11;97436.28;;;21.02;40.40
36190;BME280;22232;50.914;13.858;2023-04-22T10:51:46;97429.06;;;20.97;39.52
36190;BME280;22232;50.914;13.858;2023-04-22T10:57:30;97430.34;;;21.67;38.87
36190;BME280;22232;50.914;13.858;2023-04-22T10:59:57;97430.97;;;21.64;39.47
36190;BME280;22232;50.914;13.858;2023-04-22T11:02:26;97429.31;;;21.10;40.40
36190;BME280;22232;50.914;13.858;2023-04-22T11:05:23;97426.59;;;20.87;40.49
36190;BME280;22232;50.914;13.858;2023-04-22T11:07:54;97425.78;;;21.31;40.39
36190;BME280;22232;50.914;13.858;2023-04-22T11:10:49;97418.53;;;20.96;39.97
36190;BME280;22232;50.914;13.858;2023-04-22T11:13:19;97411.25;;;21.05;40.64
36190;BME280;22232;50.914;13.858;2023-04-22T11:15:53;97419.28;;;21.10;41.40
36190;BME280;22232;50.914;13.858;2023-04-22T11:18:23;97422.25;;;20.64;39.14
36190;BME280;22232;50.914;13.858;2023-04-22T11:20:52;97415.13;;;20.90;40.31
36190;BME280;22232;50.914;13.858;2023-04-22T11:23:25;97416.16;;;20.80;39.30
36190;BME280;22232;50.914;13.858;2023-04-22T11:25:59;97418.19;;;20.75;39.60
36190;BME280;22232;50.914;13.858;2023-04-22T11:28:27;97421.72;;;21.20;40.67
36190;BME280;22232;50.914;13.858;2023-04-22T11:31:04;97416.75;;;21.14;39.29
36190;BME280;22232;50.914;13.858;2023-04-22T11:33:33;97420.38;;;21.31;38.99
36190;BME280;22232;50.914;13.858;2023-04-22T11:36:01;97417.97;;;21.07;39.42
36190;BME280;22232;50.914;13.858;2023-04-22T11:38:28;97417.69;;;21.63;40.17
36190;BME280;22232;50.914;13.858;2023-04-22T11:40:56;97424.13;;;21.44;39.58
36190;BME280;22232;50.914;13.858;2023-04-22T11:43:24;97418.38;;;21.37;38.96
36190;BME280;22232;50.914;13.858;2023-04-22T11:45:54;97405.63;;;21.24;38.94
36190;BME280;22232;50.914;13.858;2023-04-22T11:48:22;97409.88;;;20.71;38.68
36190;BME280;22232;50.914;13.858;2023-04-22T11:51:09;97413.84;;;21.10;39.46
36190;BME280;22232;50.914;13.858;2023-04-22T11:53:38;97409.84;;;20.85;39.07
36190;BME280;22232;50.914;13.858;2023-04-22T11:56:07;97404.81;;;20.78;40.09
36190;BME280;22232;50.914;13.858;2023-04-22T11:58:37;97403.50;;;21.12;40.22
36190;BME280;22232;50.914;13.858;2023-04-22T12:01:05;97406.06;;;21.17;39.00
36190;BME280;22232;50.914;13.858;2023-04-22T12:03:38;97400.16;;;21.38;39.44
36190;BME280;22232;50.914;13.858;2023-04-22T12:06:06;97408.03;;;21.25;38.61
36190;BME280;22232;50.914;13.858;2023-04-22T12:08:35;97405.72;;;21.10;38.59
36190;BME280;22232;50.914;13.858;2023-04-22T12:11:06;97405.22;;;21.08;39.45
36190;BME280;22232;50.914;13.858;2023-04-22T12:16:08;97400.09;;;21.29;40.12
36190;BME280;22232;50.914;13.858;2023-04-22T12:18:39;97393.97;;;21.23;40.00
36190;BME280;22232;50.914;13.858;2023-04-22T12:21:08;97381.75;;;21.57;39.90
36190;BME280;22232;50.914;13.858;2023-04-22T12:23:48;97381.94;;;21.69;38.39
36190;BME280;22232;50.914;13.858;2023-04-22T12:26:18;97379.19;;;21.52;38.96
36190;BME280;22232;50.914;13.858;2023-04-22T12:28:46;97380.91;;;21.48;38.03
36190;BME280;22232;50.914;13.858;2023-04-22T12:31:14;97384.44;;;21.26;38.19
36190;BME280;22232;50.914;13.858;2023-04-22T12:33:43;97381.28;;;21.33;38.08
36190;BME280;22232;50.914;13.858;2023-04-22T12:36:11;97377.84;;;21.18;38.84
36190;BME280;22232;50.914;13.858;2023-04-22T12:38:39;97387.41;;;21.16;38.92
36190;BME280;22232;50.914;13.858;2023-04-22T12:41:06;97389.19;;;21.20;38.45
36190;BME280;22232;50.914;13.858;2023-04-22T12:43:34;97382.34;;;21.23;38.83
36190;BME280;22232;50.914;13.858;2023-04-22T12:46:04;97377.50;;;21.42;38.71
36190;BME280;22232;50.914;13.858;2023-04-22T12:48:32;97366.09;;;21.54;38.40
36190;BME280;22232;50.914;13.858;2023-04-22T12:51:00;97370.97;;;21.74;39.17
36190;BME280;22232;50.914;13.858;2023-04-22T12:53:28;97360.41;;;21.64;38.55
36190;BME280;22232;50.914;13.858;2023-04-22T12:55:56;97368.13;;;21.40;38.52
36190;BME280;22232;50.914;13.858;2023-04-22T12:58:24;97367.03;;;21.27;36.79
36190;BME280;22232;50.914;13.858;2023-04-22T13:00:52;97357.34;;;21.35;37.83
36190;BME280;22232;50.914;13.858;2023-04-22T13:03:19;97364.91;;;21.15;40.19
36190;BME280;22232;50.914;13.858;2023-04-22T13:05:47;97361.59;;;21.27;39.64
36190;BME280;22232;50.914;13.858;2023-04-22T13:08:15;97349.75;;;21.37;38.38
36190;BME280;22232;50.914;13.858;2023-04-22T13:10:43;97355.16;;;21.14;38.64
36190;BME280;22232;50.914;13.858;2023-04-22T13:13:10;97350.75;;;21.27;37.68
36190;BME280;22232;50.914;13.858;2023-04-22T13:15:41;97352.06;;;21.29;37.96
36190;BME280;22232;50.914;13.858;2023-04-22T13:18:08;97343.88;;;21.43;38.47